Kano, Nigeria
Current Conditions -  °F | °C
As of 2:00 PM on Sunday 21 Dec 2014 (Local Time) from DRZA Reporting Station
Clear Clear  
Wind Chill: 82°   Ceiling: Unl
Heat Index: 82°   Visibility: 6mi
Dew Point: 37°   Wind: 18mph
Humidity: 20%   Direction: 120°ESE
Pressure: 30.06"   Gusts: NA
Location:  12°N, 8.52°E
Report Text: DRZA 211300Z 12016KT CAVOK 28/03 Q1018
Loading
Personal Weather Stations






























Interactive Weather Map New forecast layout! Learn more

10-Day Weather Forecast

Advertisements
Track Severe Weather on mobile